KPEQ

Pecos Municipal Airport

Pecos, Texas, USA
METAR KPEQ 211415Z AUTO 08011KT 10SM BKN044 OVC050 22/14 A3006 RMK AO2 T02170140
Observed Flight Rules
May-21 @ 14:15 UTC (34 minutes ago) Visual Flight Rules
Wind Visibility Clouds
80° at 11 knots 10 miles
  • Broken at 4,400' AGL
  • Overcast at 5,000' AGL
Temperatures Readings
Current 22°C / 72°F
Dewpoint 14°C / 57°F
Humidity 61%
Altimeter 30.06" Hg
Pressure 1018 hPa
Elevation 797
METAR KPEQ 211415Z AUTO 08011KT 10SM BKN044 OVC050 22/14 A3006 RMK AO2 T02170140
Observed Flight Rules
May-21 @ 14:15 UTC
(34 minutes ago)
VFR
Wind Visibility
80° at 11 knots 10 miles
Clouds
  • Broken at 4,400' AGL
  • Overcast at 5,000' AGL
Temperature Dewpoint
22°C / 72°F 14°C / 57°F
Humidity Altimeter Pressure
61% 30.06" Hg 1018 hPa